Alpine, Colorado
Current Conditions -  °F | °C
As of 6:30 PM on Saturday 25 Oct 2014 (Local Time) from KRCV Reporting Station
Clear Clear  
Wind Chill: 62°   Ceiling: Unl
Heat Index: 62°   Visibility: 10mi
Dew Point: 23°   Wind: 17mph
Humidity: 23%   Direction: 220°SW
Pressure: 30.28"   Gusts: 24mph
Location:  37.6617°N, 106.617°W
Report Text: KRCV 260030Z AUTO 22015G21KT 10SM CLR 17/M05 A3028 RMK AO2 T01651051
Loading
Personal Weather Stations






























Interactive Weather Map
Tropical Storm Tracking
New forecast layout! Learn more

10-Day Weather Forecast

Advertisements
Track Severe Weather on mobile